Time;durP1;ratioP1;P1;durP2;ratioP2;P2;SDS_P1;SDS_P2;PMS_P1;PMS_P2;Temp;Humidity;BMP_temperature;BMP_pressure;BME280_temperature;BME280_humidity;BME280_pressure;Samples;Min_cycle;Max_cycle;Signal;HPM_P1;HPM_P2
2021/07/11 00:00:03;;;;;;;2.30;2.07;;;17.90;99.90;;;;;;5033789;28;20435;-65
2021/07/11 00:02:32;;;;;;;1.90;1.80;;;17.80;99.90;;;;;;5033905;28;20179;-65
2021/07/11 00:04:59;;;;;;;2.60;2.40;;;17.80;99.90;;;;;;5036342;28;20397;-64
2021/07/11 00:07:25;;;;;;;2.13;2.00;;;17.80;99.90;;;;;;5038803;28;20968;-65
2021/07/11 00:09:51;;;;;;;4.47;2.00;;;17.70;99.90;;;;;;5034067;28;20500;-65
2021/07/11 00:12:17;;;;;;;2.23;2.07;;;17.60;99.90;;;;;;5034041;28;20273;-64
2021/07/11 00:14:42;;;;;;;2.40;2.20;;;17.60;99.90;;;;;;5033942;28;20171;-65
2021/07/11 00:17:08;;;;;;;1.57;1.47;;;17.60;99.90;;;;;;5033319;28;20175;-64
2021/07/11 00:19:34;;;;;;;2.90;2.70;;;17.50;99.90;;;;;;5034871;28;20203;-64
2021/07/11 00:21:59;;;;;;;1.60;1.50;;;17.40;99.90;;;;;;5053675;28;20175;-64
2021/07/11 00:24:25;;;;;;;2.30;1.40;;;17.40;99.90;;;;;;5053445;28;20220;-64
2021/07/11 00:26:50;;;;;;;1.90;1.80;;;17.30;99.90;;;;;;5053498;28;20194;-64
2021/07/11 00:29:16;;;;;;;2.17;1.80;;;17.30;99.90;;;;;;5052877;28;20197;-65
2021/07/11 00:31:42;;;;;;;3.23;2.27;;;17.20;99.90;;;;;;5054100;28;20629;-66
2021/07/11 00:34:07;;;;;;;1.87;1.63;;;17.10;99.90;;;;;;5053409;28;20174;-66
2021/07/11 00:36:33;;;;;;;2.63;1.30;;;17.10;99.90;;;;;;5033634;28;20719;-66
2021/07/11 00:38:58;;;;;;;1.60;1.50;;;17.00;99.90;;;;;;5032623;28;20199;-63
2021/07/11 00:41:24;;;;;;;1.80;1.63;;;17.00;99.90;;;;;;5033620;28;20171;-66
2021/07/11 00:43:49;;;;;;;1.77;1.67;;;16.90;99.90;;;;;;5033375;28;20181;-66
2021/07/11 00:46:15;;;;;;;1.80;1.70;;;16.90;99.90;;;;;;5033226;28;20171;-64
2021/07/11 00:48:41;;;;;;;2.00;1.70;;;16.90;99.90;;;;;;5032958;28;20258;-66
2021/07/11 00:51:06;;;;;;;2.00;1.90;;;16.90;99.90;;;;;;5033321;28;20236;-66
2021/07/11 00:53:33;;;;;;;2.83;1.57;;;16.90;99.90;;;;;;5033446;28;20177;-65
2021/07/11 00:55:58;;;;;;;1.10;1.10;;;16.90;99.90;;;;;;5033203;28;20262;-67
2021/07/11 00:58:24;;;;;;;1.50;1.40;;;16.80;99.90;;;;;;5032659;28;20453;-66
2021/07/11 01:00:54;;;;;;;1.40;1.30;;;16.80;99.90;;;;;;5033074;28;20187;-65
2021/07/11 01:03:37;;;;;;;1.87;1.53;;;16.80;99.90;;;;;;5033286;28;20223;-67
2021/07/11 01:06:04;;;;;;;1.47;1.47;;;16.70;99.90;;;;;;5052970;28;20436;-65
2021/07/11 01:08:36;;;;;;;2.50;1.70;;;16.70;99.90;;;;;;5052533;28;20453;-64
2021/07/11 01:11:07;;;;;;;8.80;1.60;;;16.70;99.90;;;;;;5053038;28;20726;-64
2021/07/11 01:13:35;;;;;;;1.80;1.70;;;16.70;99.90;;;;;;5053317;28;20485;-65
2021/07/11 01:16:08;;;;;;;1.67;1.57;;;16.70;99.90;;;;;;5053243;28;20454;-65
2021/07/11 01:18:38;;;;;;;1.40;1.30;;;16.70;99.90;;;;;;5052238;28;20378;-65
2021/07/11 01:21:08;;;;;;;1.20;1.20;;;16.70;99.90;;;;;;5052003;28;20382;-64
2021/07/11 01:23:59;;;;;;;2.03;1.87;;;16.70;99.90;;;;;;5032983;28;20435;-65
2021/07/11 01:26:28;;;;;;;2.07;1.53;;;16.70;99.90;;;;;;5033021;28;20771;-65
2021/07/11 01:28:56;;;;;;;1.60;1.50;;;16.70;99.90;;;;;;5032672;28;20429;-65
2021/07/11 01:31:24;;;;;;;1.13;1.03;;;16.70;99.90;;;;;;5033122;28;20401;-65
2021/07/11 01:33:51;;;;;;;1.57;1.47;;;16.70;99.90;;;;;;5033031;28;20513;-65
2021/07/11 01:36:18;;;;;;;1.40;1.30;;;16.70;99.90;;;;;;5032865;28;20397;-65
2021/07/11 01:38:47;;;;;;;1.40;1.30;;;16.70;99.90;;;;;;5032774;28;20507;-65
2021/07/11 01:41:13;;;;;;;1.40;1.30;;;16.70;99.90;;;;;;5032894;28;20428;-64
2021/07/11 01:43:42;;;;;;;2.10;2.00;;;16.70;99.90;;;;;;5051020;28;20843;-65
2021/07/11 01:46:09;;;;;;;3.20;1.67;;;16.60;99.90;;;;;;5052826;28;20950;-65
2021/07/11 01:48:36;;;;;;;1.40;1.30;;;16.70;99.90;;;;;;5052038;28;20469;-65
2021/07/11 01:51:03;;;;;;;1.40;1.30;;;16.70;99.90;;;;;;5054404;28;20404;-66
2021/07/11 01:53:35;;;;;;;2.10;1.27;;;16.70;99.90;;;;;;5053643;28;20581;-66
2021/07/11 01:56:03;;;;;;;1.40;1.30;;;16.70;99.90;;;;;;5036546;28;20410;-65
2021/07/11 01:58:28;;;;;;;1.43;1.33;;;16.70;99.90;;;;;;5035713;28;20433;-65
2021/07/11 02:00:55;;;;;;;1.90;1.80;;;16.60;99.90;;;;;;5036104;28;20391;-65
2021/07/11 02:03:24;;;;;;;1.00;1.00;;;16.70;99.90;;;;;;5036093;28;20643;-65
2021/07/11 02:05:50;;;;;;;1.43;1.33;;;16.70;99.90;;;;;;5036913;28;20902;-66
2021/07/11 02:08:16;;;;;;;1.87;1.30;;;16.60;99.90;;;;;;5055810;28;20438;-66
2021/07/11 02:10:46;;;;;;;1.60;1.50;;;16.60;99.90;;;;;;5055901;28;20420;-66
2021/07/11 02:13:28;;;;;;;1.70;1.23;;;16.60;99.90;;;;;;5055825;28;20415;-66
2021/07/11 02:15:57;;;;;;;1.17;1.17;;;16.60;99.90;;;;;;5056101;28;20383;-65
2021/07/11 02:18:26;;;;;;;1.20;1.10;;;16.60;99.90;;;;;;5055494;28;20408;-65
2021/07/11 02:20:54;;;;;;;2.00;1.57;;;16.60;99.90;;;;;;5052089;28;20818;-66
2021/07/11 02:23:22;;;;;;;2.67;1.40;;;16.60;99.90;;;;;;5035834;28;20405;-65
2021/07/11 02:25:48;;;;;;;4.33;1.30;;;16.60;99.90;;;;;;5035827;28;20410;-65
2021/07/11 02:28:16;;;;;;;1.20;1.10;;;16.60;99.90;;;;;;5035311;28;20444;-65
2021/07/11 02:30:51;;;;;;;1.67;1.57;;;16.60;99.90;;;;;;5035562;28;20391;-65
2021/07/11 02:33:26;;;;;;;1.20;1.10;;;16.60;99.90;;;;;;5034484;28;20409;-65
2021/07/11 02:35:53;;;;;;;1.73;1.63;;;16.60;99.90;;;;;;5040733;28;20743;-64
2021/07/11 02:38:20;;;;;;;1.47;1.37;;;16.60;99.90;;;;;;5055204;28;20943;-65
2021/07/11 02:40:46;;;;;;;2.03;1.57;;;16.60;99.90;;;;;;5055581;28;20428;-66
2021/07/11 02:43:15;;;;;;;1.63;1.53;;;16.60;99.90;;;;;;5055387;28;20407;-65
2021/07/11 02:45:43;;;;;;;1.33;1.23;;;16.60;99.90;;;;;;5055526;28;20475;-65
2021/07/11 02:48:10;;;;;;;1.30;1.30;;;16.60;99.90;;;;;;5055022;28;20452;-66
2021/07/11 02:50:37;;;;;;;1.20;1.13;;;16.60;99.90;;;;;;5054849;28;20451;-66
2021/07/11 02:53:04;;;;;;;1.13;1.10;;;16.60;99.90;;;;;;5054952;28;20391;-65
2021/07/11 02:55:34;;;;;;;1.83;1.10;;;16.60;99.90;;;;;;5035108;28;20879;-65
2021/07/11 02:58:08;;;;;;;1.13;1.03;;;16.60;99.90;;;;;;5035202;28;20411;-66
2021/07/11 03:00:35;;;;;;;1.40;1.30;;;16.60;99.90;;;;;;5054063;28;20986;-65
2021/07/11 03:03:02;;;;;;;1.50;1.40;;;16.60;99.90;;;;;;5052677;28;20394;-66
2021/07/11 03:05:28;;;;;;;1.37;1.33;;;16.60;99.90;;;;;;5055147;28;20865;-65
2021/07/11 03:07:54;;;;;;;1.30;1.27;;;16.60;99.90;;;;;;5054727;28;20449;-65
2021/07/11 03:10:20;;;;;;;1.43;1.43;;;16.60;99.90;;;;;;5054960;28;20406;-64
2021/07/11 03:12:49;;;;;;;1.10;1.10;;;16.60;99.90;;;;;;5054662;28;20197;-66
2021/07/11 03:15:15;;;;;;;4.53;1.50;;;16.60;99.90;;;;;;5054764;28;20721;-64
2021/07/11 03:17:41;;;;;;;4.03;1.50;;;16.60;99.90;;;;;;5054551;28;20387;-66
2021/07/11 03:20:08;;;;;;;1.57;1.47;;;16.50;99.90;;;;;;5054799;28;20559;-65
2021/07/11 03:22:36;;;;;;;2.63;1.77;;;16.60;99.90;;;;;;5055358;28;20451;-65
2021/07/11 03:25:07;;;;;;;1.17;1.13;;;16.50;99.90;;;;;;5054870;28;20434;-65
2021/07/11 03:27:33;;;;;;;1.60;1.50;;;16.60;99.90;;;;;;5052961;28;20468;-65
2021/07/11 03:30:08;;;;;;;1.20;1.20;;;16.50;99.90;;;;;;5034693;28;20407;-66
2021/07/11 03:32:41;;;;;;;1.47;1.37;;;16.60;99.90;;;;;;5034656;28;20424;-65
2021/07/11 03:35:09;;;;;;;1.47;1.20;;;16.60;99.90;;;;;;5034701;28;20398;-64
2021/07/11 03:37:40;;;;;;;2.57;1.47;;;16.50;99.90;;;;;;5033920;28;20822;-65
2021/07/11 03:40:07;;;;;;;1.30;1.20;;;16.50;99.90;;;;;;5034393;28;20429;-65
2021/07/11 03:42:38;;;;;;;1.60;1.50;;;16.60;99.90;;;;;;5034661;28;20496;-66
2021/07/11 03:45:05;;;;;;;1.33;1.27;;;16.60;99.90;;;;;;5034526;28;20387;-66
2021/07/11 03:47:39;;;;;;;2.00;1.77;;;16.60;99.90;;;;;;5034316;28;20777;-66
2021/07/11 03:50:06;;;;;;;1.27;1.20;;;16.60;99.90;;;;;;5034319;28;20460;-65
2021/07/11 03:52:48;;;;;;;1.57;1.47;;;16.50;99.90;;;;;;5048025;28;20478;-65
2021/07/11 03:55:17;;;;;;;2.90;1.77;;;16.60;99.90;;;;;;5053692;28;20428;-66
2021/07/11 03:57:46;;;;;;;1.40;1.23;;;16.50;99.90;;;;;;5053500;28;20428;-66
2021/07/11 04:00:16;;;;;;;1.70;1.60;;;16.60;99.90;;;;;;5054061;28;20538;-66
2021/07/11 04:02:45;;;;;;;1.63;1.53;;;16.60;99.90;;;;;;5052639;28;20770;-64
2021/07/11 04:05:13;;;;;;;1.37;1.27;;;16.60;99.90;;;;;;5054057;28;20411;-65
2021/07/11 04:07:40;;;;;;;1.10;1.10;;;16.60;99.90;;;;;;5053293;28;20447;-66
2021/07/11 04:10:07;;;;;;;1.60;1.50;;;16.60;99.90;;;;;;5053842;28;20512;-66
2021/07/11 04:12:33;;;;;;;1.63;1.20;;;16.60;99.90;;;;;;5037899;28;20420;-65
2021/07/11 04:14:59;;;;;;;2.33;1.20;;;16.60;99.90;;;;;;5033555;28;20413;-64
2021/07/11 04:17:27;;;;;;;1.70;1.60;;;16.60;99.90;;;;;;5033498;28;20418;-64
2021/07/11 04:19:56;;;;;;;1.10;1.00;;;16.70;99.90;;;;;;5033613;28;20294;-65
2021/07/11 04:22:22;;;;;;;1.07;1.07;;;16.70;99.90;;;;;;5033876;28;20478;-67
2021/07/11 04:24:50;;;;;;;1.10;1.10;;;16.70;99.90;;;;;;5033413;28;20428;-66
2021/07/11 04:27:16;;;;;;;2.20;2.00;;;16.70;99.90;;;;;;5031650;28;20467;-66
2021/07/11 04:29:43;;;;;;;1.73;1.63;;;16.80;99.90;;;;;;5033628;28;20482;-66
2021/07/11 04:32:10;;;;;;;2.10;1.87;;;16.90;99.90;;;;;;5033462;28;20432;-66
2021/07/11 04:34:36;;;;;;;2.10;1.80;;;16.90;99.90;;;;;;5033551;28;20452;-66
2021/07/11 04:37:04;;;;;;;1.70;1.50;;;16.90;99.90;;;;;;5033474;28;20420;-66
2021/07/11 04:39:30;;;;;;;1.80;1.70;;;17.00;99.90;;;;;;5033058;28;20575;-66
2021/07/11 04:41:57;;;;;;;1.53;1.13;;;17.00;99.90;;;;;;5047604;28;20427;-65
2021/07/11 04:44:29;;;;;;;1.57;1.47;;;17.10;99.90;;;;;;5053525;28;20497;-66
2021/07/11 04:46:56;;;;;;;1.43;1.33;;;17.20;99.90;;;;;;5053409;28;20958;-66
2021/07/11 04:49:22;;;;;;;3.13;1.37;;;17.20;99.90;;;;;;5058275;28;20496;-66
2021/07/11 04:51:49;;;;;;;1.13;1.13;;;17.20;99.90;;;;;;5055961;28;20406;-66
2021/07/11 04:54:15;;;;;;;1.27;1.17;;;17.20;99.90;;;;;;5053458;28;20394;-65
2021/07/11 04:56:41;;;;;;;1.50;1.40;;;17.30;99.90;;;;;;5052890;28;20935;-66
2021/07/11 04:59:07;;;;;;;1.37;1.27;;;17.40;99.90;;;;;;5052843;28;20519;-65
2021/07/11 05:01:32;;;;;;;1.30;1.20;;;17.40;99.90;;;;;;5053330;28;20177;-66
2021/07/11 05:03:58;;;;;;;1.50;1.40;;;17.50;99.90;;;;;;5053330;28;20649;-66
2021/07/11 05:06:24;;;;;;;1.40;1.30;;;17.50;99.90;;;;;;5053204;28;20582;-66
2021/07/11 05:08:50;;;;;;;1.23;1.17;;;17.50;99.90;;;;;;5052849;28;20687;-66
2021/07/11 05:11:17;;;;;;;1.60;1.50;;;17.50;99.90;;;;;;5040006;28;20270;-66
2021/07/11 05:13:43;;;;;;;1.70;1.17;;;17.50;99.90;;;;;;5033116;28;20967;-66
2021/07/11 05:16:08;;;;;;;1.97;1.60;;;17.50;99.90;;;;;;5033298;28;20421;-66
2021/07/11 05:18:34;;;;;;;1.87;1.77;;;17.60;99.90;;;;;;5032671;28;20184;-66
2021/07/11 05:20:59;;;;;;;1.57;1.50;;;17.70;99.90;;;;;;5033698;28;20599;-66
2021/07/11 05:23:25;;;;;;;1.40;1.27;;;17.60;99.90;;;;;;5033363;28;20181;-67
2021/07/11 05:25:52;;;;;;;1.70;1.60;;;17.70;99.90;;;;;;5044241;28;20188;-67
2021/07/11 05:28:18;;;;;;;1.60;1.47;;;17.70;99.90;;;;;;5036846;28;20222;-67
2021/07/11 05:30:44;;;;;;;1.23;1.23;;;17.80;99.90;;;;;;5037015;28;20404;-66
2021/07/11 05:33:10;;;;;;;1.53;1.13;;;17.80;99.90;;;;;;5037107;28;20417;-66
2021/07/11 05:35:35;;;;;;;1.80;1.70;;;17.80;99.90;;;;;;5037122;28;20181;-67
2021/07/11 05:38:01;;;;;;;1.30;1.20;;;17.80;99.90;;;;;;5036393;28;20935;-66
2021/07/11 05:40:26;;;;;;;1.87;1.77;;;17.90;99.90;;;;;;5036940;28;20196;-67
2021/07/11 05:42:52;;;;;;;1.40;1.30;;;17.90;99.90;;;;;;5036943;28;20179;-66
2021/07/11 05:45:18;;;;;;;1.63;1.53;;;17.90;99.90;;;;;;5036925;28;20679;-67
2021/07/11 05:47:44;;;;;;;1.70;1.60;;;17.90;99.90;;;;;;5036413;28;20207;-67
2021/07/11 05:50:10;;;;;;;1.57;1.43;;;17.90;99.90;;;;;;5035305;28;20193;-66
2021/07/11 05:52:36;;;;;;;1.20;1.20;;;17.80;99.90;;;;;;5036354;28;20179;-67
2021/07/11 05:55:03;;;;;;;1.50;1.40;;;17.90;99.90;;;;;;5044982;28;20751;-67
2021/07/11 05:57:30;;;;;;;1.50;1.40;;;18.00;99.90;;;;;;5055853;28;20408;-66
2021/07/11 05:59:56;;;;;;;1.60;1.50;;;18.00;99.90;;;;;;5056190;28;20449;-66
2021/07/11 06:02:22;;;;;;;1.27;1.20;;;18.00;99.90;;;;;;5056375;28;20410;-66
2021/07/11 06:04:48;;;;;;;4.17;1.40;;;18.00;99.90;;;;;;5056308;28;20423;-66
2021/07/11 06:07:13;;;;;;;1.70;1.60;;;18.10;99.90;;;;;;5055636;28;20515;-67
2021/07/11 06:09:39;;;;;;;1.77;1.67;;;18.20;99.90;;;;;;5055644;28;20589;-66
2021/07/11 06:12:05;;;;;;;1.77;1.67;;;18.20;99.90;;;;;;5044280;28;20710;-65
2021/07/11 06:14:31;;;;;;;1.87;1.70;;;18.40;99.90;;;;;;5036274;28;20285;-66
2021/07/11 06:16:56;;;;;;;2.03;1.83;;;18.50;99.90;;;;;;5036134;28;20414;-65
2021/07/11 06:19:22;;;;;;;2.27;2.07;;;18.80;99.90;;;;;;5035423;28;21034;-66
2021/07/11 06:21:49;;;;;;;1.70;1.60;;;19.10;99.90;;;;;;5035891;28;20269;-66
2021/07/11 06:24:15;;;;;;;4.20;1.63;;;19.40;99.90;;;;;;5041707;28;20177;-66
2021/07/11 06:26:42;;;;;;;1.50;1.40;;;19.60;99.90;;;;;;5055692;28;20444;-67
2021/07/11 06:29:07;;;;;;;1.97;1.40;;;19.80;99.90;;;;;;5055382;28;20466;-66
2021/07/11 06:31:33;;;;;;;1.40;1.30;;;19.90;99.90;;;;;;5055776;28;20990;-66
2021/07/11 06:33:59;;;;;;;1.27;1.20;;;20.20;99.90;;;;;;5055681;28;20170;-66
2021/07/11 06:36:26;;;;;;;1.53;1.43;;;20.30;99.90;;;;;;5055315;28;20521;-65
2021/07/11 06:38:51;;;;;;;1.80;1.70;;;20.40;99.90;;;;;;5054780;28;20720;-66
2021/07/11 06:41:17;;;;;;;2.53;2.37;;;20.60;99.90;;;;;;5055512;28;20503;-68
2021/07/11 06:43:43;;;;;;;2.10;1.73;;;20.80;99.90;;;;;;5055492;28;20178;-67
2021/07/11 06:46:09;;;;;;;1.73;1.63;;;21.00;99.90;;;;;;5055575;28;20180;-67
2021/07/11 06:48:35;;;;;;;2.20;1.73;;;21.10;99.90;;;;;;5054819;28;20249;-66
2021/07/11 06:51:01;;;;;;;1.57;1.47;;;21.20;99.90;;;;;;5055223;28;20914;-67
2021/07/11 06:53:26;;;;;;;1.40;1.30;;;21.20;99.90;;;;;;5051410;28;20384;-67
2021/07/11 06:55:52;;;;;;;1.63;1.53;;;21.20;99.90;;;;;;5051434;28;20195;-67
2021/07/11 06:58:18;;;;;;;1.80;1.27;;;21.30;99.90;;;;;;5054322;28;20191;-66
2021/07/11 07:00:44;;;;;;;1.30;1.20;;;21.40;99.90;;;;;;5055253;28;20258;-67
2021/07/11 07:03:09;;;;;;;2.00;1.90;;;21.30;99.90;;;;;;5054673;28;20194;-66
2021/07/11 07:05:35;;;;;;;1.50;1.40;;;21.30;99.90;;;;;;5055576;28;20178;-67
2021/07/11 07:08:01;;;;;;;1.47;1.37;;;21.40;99.90;;;;;;5054422;28;20293;-67
2021/07/11 07:10:26;;;;;;;2.20;1.13;;;21.50;99.90;;;;;;5054677;28;20239;-67
2021/07/11 07:12:52;;;;;;;1.30;1.20;;;21.60;99.90;;;;;;5054633;28;20702;-67
2021/07/11 07:15:18;;;;;;;1.70;1.57;;;21.70;99.90;;;;;;5054946;28;20175;-67
2021/07/11 07:17:44;;;;;;;5.60;1.60;;;21.80;99.90;;;;;;5048394;28;20183;-67
2021/07/11 07:20:11;;;;;;;1.57;1.47;;;21.90;99.90;;;;;;5034600;28;20495;-67
2021/07/11 07:22:37;;;;;;;2.53;2.30;;;22.20;99.90;;;;;;5034965;28;20503;-67
2021/07/11 07:25:08;;;;;;;1.63;1.53;;;22.60;99.90;;;;;;5034889;28;20459;-67
2021/07/11 07:27:34;;;;;;;1.30;1.20;;;22.80;99.90;;;;;;5033000;28;20209;-67
2021/07/11 07:30:00;;;;;;;1.63;1.53;;;23.00;99.90;;;;;;5034513;28;20516;-68
2021/07/11 07:32:26;;;;;;;1.90;1.80;;;23.30;99.90;;;;;;5039641;28;20178;-67
2021/07/11 07:34:51;;;;;;;1.70;1.60;;;23.70;99.90;;;;;;5054487;28;20166;-66
2021/07/11 07:37:17;;;;;;;1.87;1.77;;;24.30;99.90;;;;;;5054156;28;20171;-66
2021/07/11 07:39:42;;;;;;;1.70;1.60;;;25.10;99.90;;;;;;5054628;28;20205;-67
2021/07/11 07:42:08;;;;;;;2.10;1.90;;;26.10;98.20;;;;;;5054455;28;20184;-67
2021/07/11 07:44:34;;;;;;;1.80;1.70;;;26.80;97.30;;;;;;5054159;28;20640;-67
2021/07/11 07:47:00;;;;;;;2.07;1.50;;;27.80;96.20;;;;;;5049941;28;20245;-66
2021/07/11 07:49:26;;;;;;;1.80;1.70;;;28.80;94.00;;;;;;5033254;28;20265;-67
2021/07/11 07:51:52;;;;;;;5.13;2.20;;;29.70;91.70;;;;;;5034381;28;20508;-66
2021/07/11 07:54:18;;;;;;;1.33;1.23;;;29.60;91.30;;;;;;5033340;28;20448;-67
2021/07/11 07:56:44;;;;;;;1.70;1.60;;;29.40;90.30;;;;;;5034063;28;20640;-66
2021/07/11 07:59:09;;;;;;;2.23;2.13;;;28.90;91.30;;;;;;5033555;28;20200;-66
2021/07/11 08:01:37;;;;;;;1.60;1.50;;;28.30;91.60;;;;;;5036147;28;20179;-66
2021/07/11 08:04:03;;;;;;;1.60;1.50;;;28.10;91.60;;;;;;5050509;28;20191;-66
2021/07/11 08:06:30;;;;;;;1.80;1.70;;;28.60;91.80;;;;;;5033974;28;20440;-66
2021/07/11 08:08:56;;;;;;;1.80;1.70;;;29.00;90.80;;;;;;5033638;28;20428;-67
2021/07/11 08:11:22;;;;;;;2.00;1.90;;;28.90;89.60;;;;;;5039499;28;20504;-66
2021/07/11 08:13:48;;;;;;;1.77;1.67;;;28.50;90.10;;;;;;5053875;28;20507;-66
2021/07/11 08:16:14;;;;;;;1.43;1.43;;;28.50;90.30;;;;;;5053550;28;20187;-66
2021/07/11 08:18:39;;;;;;;1.43;1.33;;;29.00;90.40;;;;;;5052013;28;20209;-65
2021/07/11 08:21:05;;;;;;;1.40;1.30;;;29.50;89.90;;;;;;5053579;28;20177;-66
2021/07/11 08:23:31;;;;;;;1.60;1.50;;;29.60;87.40;;;;;;5053797;28;20178;-66
2021/07/11 08:25:56;;;;;;;1.70;1.60;;;28.80;88.40;;;;;;5048754;28;20182;-66
2021/07/11 08:28:23;;;;;;;1.80;1.70;;;27.90;89.90;;;;;;5033103;28;20201;-67
2021/07/11 08:30:49;;;;;;;2.07;1.97;;;27.50;91.20;;;;;;5033517;28;20245;-69
2021/07/11 08:33:14;;;;;;;1.80;1.70;;;27.30;92.10;;;;;;5033709;28;20437;-68
2021/07/11 08:35:40;;;;;;;1.70;1.60;;;27.70;91.30;;;;;;5048443;28;20204;-70
2021/07/11 08:38:06;;;;;;;1.63;1.53;;;28.10;91.20;;;;;;5053031;28;20173;-68
2021/07/11 08:40:35;;;;;;;1.80;1.70;;;28.20;90.10;;;;;;5053545;28;20274;-68
2021/07/11 08:43:08;;;;;;;1.57;1.47;;;27.70;90.10;;;;;;5053970;28;20183;-67
2021/07/11 08:45:34;;;;;;;1.43;1.43;;;27.10;91.00;;;;;;5054021;28;20397;-68
2021/07/11 08:48:01;;;;;;;1.60;1.50;;;26.30;91.50;;;;;;5053040;28;20444;-68
2021/07/11 08:50:28;;;;;;;1.67;1.57;;;25.70;93.20;;;;;;5052782;28;20439;-68
2021/07/11 08:52:55;;;;;;;1.80;1.70;;;25.10;94.20;;;;;;5053320;28;20408;-66
2021/07/11 08:55:23;;;;;;;1.50;1.40;;;24.90;94.80;;;;;;5053116;28;20420;-65
2021/07/11 08:57:54;;;;;;;2.10;2.00;;;25.20;95.40;;;;;;5052591;28;20456;-67
2021/07/11 09:00:25;;;;;;;2.10;1.90;;;25.70;95.10;;;;;;5055398;28;20443;-66
2021/07/11 09:02:51;;;;;;;1.17;1.10;;;26.90;93.50;;;;;;5057435;28;20934;-67
2021/07/11 09:05:25;;;;;;;3.00;2.80;;;28.10;91.20;;;;;;5040914;28;20439;-67
2021/07/11 09:08:01;;;;;;;1.27;1.27;;;29.50;90.00;;;;;;5036847;28;20208;-68
2021/07/11 09:10:33;;;;;;;1.97;1.87;;;30.40;83.90;;;;;;5037175;28;20926;-66
2021/07/11 09:12:59;;;;;;;1.73;1.63;;;30.30;84.80;;;;;;5037403;28;20570;-66
2021/07/11 09:15:34;;;;;;;2.03;1.93;;;30.00;84.10;;;;;;5037149;28;20924;-67
2021/07/11 09:18:00;;;;;;;3.07;2.87;;;29.30;85.40;;;;;;5036957;28;20859;-70
2021/07/11 09:20:27;;;;;;;4.20;3.77;;;28.10;85.40;;;;;;5055517;28;20447;-69
2021/07/11 09:22:58;;;;;;;3.00;2.80;;;27.30;89.00;;;;;;5056955;28;20537;-67
2021/07/11 09:25:24;;;;;;;1.90;1.80;;;26.60;90.30;;;;;;5056919;28;20427;-66
2021/07/11 09:27:50;;;;;;;1.60;1.50;;;26.10;91.40;;;;;;5044997;28;20456;-66
2021/07/11 09:30:17;;;;;;;1.47;1.37;;;25.60;91.90;;;;;;5036905;28;20443;-67
2021/07/11 09:32:44;;;;;;;1.70;1.60;;;25.30;93.00;;;;;;5053611;28;20188;-68
2021/07/11 09:35:15;;;;;;;3.13;1.70;;;24.90;93.90;;;;;;5057095;28;20418;-67
2021/07/11 09:37:47;;;;;;;4.43;3.47;;;24.60;94.10;;;;;;5056511;28;20397;-66
2021/07/11 09:40:15;;;;;;;1.87;1.53;;;24.30;94.50;;;;;;5056652;28;20436;-66
2021/07/11 09:42:43;;;;;;;2.17;1.63;;;24.00;94.90;;;;;;5056565;28;20420;-67
2021/07/11 09:45:20;;;;;;;2.10;1.93;;;23.80;95.60;;;;;;5056808;28;20378;-69
2021/07/11 09:47:47;;;;;;;1.60;1.50;;;23.60;95.90;;;;;;5056008;28;20447;-66
2021/07/11 09:50:20;;;;;;;1.77;1.50;;;23.60;96.30;;;;;;5056617;28;20430;-66
2021/07/11 09:52:48;;;;;;;1.20;1.20;;;23.50;95.60;;;;;;5056763;28;20390;-66
2021/07/11 09:55:21;;;;;;;1.50;1.40;;;23.50;95.80;;;;;;5056269;28;20412;-65
2021/07/11 09:57:57;;;;;;;1.53;1.43;;;23.50;96.00;;;;;;5040812;28;20443;-65
2021/07/11 10:00:36;;;;;;;1.67;1.57;;;23.70;95.30;;;;;;5036604;28;20441;-66
2021/07/11 10:03:06;;;;;;;1.30;1.20;;;23.90;95.70;;;;;;5036327;28;20384;-66
2021/07/11 10:05:33;;;;;;;2.07;1.60;;;24.00;95.00;;;;;;5036063;28;20767;-65
2021/07/11 10:07:59;;;;;;;2.23;2.07;;;24.20;95.00;;;;;;5035691;28;20427;-66
2021/07/11 10:10:32;;;;;;;1.83;1.60;;;24.40;95.10;;;;;;5036288;28;20404;-65
2021/07/11 10:12:59;;;;;;;2.00;1.90;;;24.60;95.00;;;;;;5035515;28;20782;-65
2021/07/11 10:15:28;;;;;;;1.50;1.40;;;24.70;95.10;;;;;;5036056;28;20378;-66
2021/07/11 10:18:05;;;;;;;1.47;1.40;;;24.80;94.20;;;;;;5035480;28;20480;-66
2021/07/11 10:20:54;;;;;;;1.50;1.40;;;24.90;93.40;;;;;;5035746;28;20757;-65
2021/07/11 10:23:28;;;;;;;1.53;1.43;;;24.90;93.50;;;;;;5035717;28;20415;-66
2021/07/11 10:26:06;;;;;;;1.40;1.40;;;24.80;93.10;;;;;;5039453;28;20502;-65
2021/07/11 10:28:34;;;;;;;1.50;1.40;;;24.70;94.20;;;;;;5054808;28;20436;-64
2021/07/11 10:31:00;;;;;;;1.90;1.20;;;24.60;94.20;;;;;;5055684;28;20401;-65
2021/07/11 10:33:27;;;;;;;2.10;1.50;;;24.70;94.40;;;;;;5055400;28;20753;-65
2021/07/11 10:36:05;;;;;;;2.37;2.17;;;25.00;93.90;;;;;;5056001;28;20400;-65
2021/07/11 10:38:32;;;;;;;1.70;1.60;;;25.40;93.90;;;;;;5055362;28;20395;-66
2021/07/11 10:41:17;;;;;;;1.67;1.57;;;26.30;93.70;;;;;;5055349;28;20786;-66
2021/07/11 10:44:05;;;;;;;1.40;1.30;;;27.20;92.30;;;;;;5055392;28;20400;-66
2021/07/11 10:46:44;;;;;;;1.90;1.80;;;27.90;88.80;;;;;;5055505;28;20416;-66
2021/07/11 10:49:21;;;;;;;1.80;1.30;;;28.10;89.10;;;;;;5054852;28;20449;-66
2021/07/11 10:51:50;;;;;;;2.47;1.87;;;27.90;88.60;;;;;;5055360;28;20799;-67
2021/07/11 10:54:33;;;;;;;1.80;1.70;;;27.90;87.20;;;;;;5055284;28;20375;-66
2021/07/11 10:57:07;;;;;;;3.73;3.37;;;27.50;90.50;;;;;;5038775;28;20502;-67
2021/07/11 10:59:45;;;;;;;6.63;1.73;;;27.40;89.80;;;;;;5035099;28;20780;-66
2021/07/11 11:02:21;;;;;;;2.10;2.00;;;27.30;89.10;;;;;;5035173;28;20403;-66
2021/07/11 11:05:12;;;;;;;1.93;1.50;;;27.20;90.30;;;;;;5034892;28;20425;-66
2021/07/11 11:07:51;;;;;;;1.60;1.50;;;27.20;90.00;;;;;;5034623;28;20471;-66
2021/07/11 11:10:35;;;;;;;1.77;1.60;;;27.40;88.30;;;;;;5038393;28;20406;-65
2021/07/11 11:13:08;;;;;;;1.80;1.70;;;27.20;89.80;;;;;;5054544;28;20386;-67
2021/07/11 11:15:45;;;;;;;1.87;1.77;;;27.20;90.50;;;;;;5054692;28;20953;-67
2021/07/11 11:18:15;;;;;;;2.50;1.50;;;27.20;90.60;;;;;;5053043;28;20422;-65
2021/07/11 11:20:42;;;;;;;1.70;1.57;;;27.00;90.10;;;;;;5054603;28;20407;-65
2021/07/11 11:23:10;;;;;;;1.90;1.80;;;26.90;90.50;;;;;;5053702;28;20506;-66
2021/07/11 11:25:35;;;;;;;2.30;1.90;;;26.80;90.40;;;;;;5045287;28;20563;-65
2021/07/11 11:28:01;;;;;;;1.60;1.50;;;26.50;91.10;;;;;;5034352;28;20551;-64
2021/07/11 11:30:27;;;;;;;2.37;1.50;;;26.10;92.10;;;;;;5034538;28;20186;-65
2021/07/11 11:33:00;;;;;;;1.83;1.73;;;25.90;91.70;;;;;;5034748;28;20510;-65
2021/07/11 11:35:29;;;;;;;7.17;2.60;;;25.60;92.40;;;;;;5034473;28;20201;-65
2021/07/11 11:37:58;;;;;;;2.17;2.07;;;25.50;93.60;;;;;;5033929;28;20408;-67
2021/07/11 11:40:26;;;;;;;2.10;1.60;;;25.20;93.90;;;;;;5034126;28;20491;-65
2021/07/11 11:42:55;;;;;;;1.73;1.63;;;25.00;93.40;;;;;;5034275;28;20428;-64
2021/07/11 11:45:24;;;;;;;1.57;1.47;;;24.80;93.70;;;;;;5034384;28;20472;-65
2021/07/11 11:48:09;;;;;;;2.47;1.87;;;24.70;94.10;;;;;;5033811;28;20450;-65
2021/07/11 11:50:36;;;;;;;1.67;1.57;;;24.50;93.70;;;;;;5034155;28;20800;-66
2021/07/11 11:53:14;;;;;;;1.33;1.23;;;24.60;94.00;;;;;;5033955;28;20467;-66
2021/07/11 11:55:51;;;;;;;1.40;1.30;;;24.70;93.30;;;;;;5047152;28;20416;-65
2021/07/11 11:58:25;;;;;;;1.40;1.30;;;24.80;93.00;;;;;;5052997;28;20921;-66
2021/07/11 12:01:04;;;;;;;1.50;1.40;;;24.90;92.70;;;;;;5054067;28;20399;-67
2021/07/11 12:03:30;;;;;;;1.63;1.40;;;24.90;93.90;;;;;;5053987;28;20409;-66
2021/07/11 12:06:00;;;;;;;1.30;1.20;;;25.10;93.90;;;;;;5053692;28;20416;-68
2021/07/11 12:08:28;;;;;;;1.53;1.43;;;25.10;93.10;;;;;;5053456;28;20473;-66
2021/07/11 12:10:54;;;;;;;1.67;1.57;;;25.00;92.60;;;;;;5037290;28;20410;-66
2021/07/11 12:13:24;;;;;;;1.30;1.30;;;25.10;92.40;;;;;;5053457;28;20381;-66
2021/07/11 12:15:59;;;;;;;1.83;1.50;;;25.20;91.90;;;;;;5053570;28;20494;-66
2021/07/11 12:18:25;;;;;;;1.20;1.20;;;25.20;91.80;;;;;;5053342;28;20788;-66
2021/07/11 12:20:54;;;;;;;3.73;3.30;;;25.30;91.10;;;;;;5051942;28;20439;-66
2021/07/11 12:23:20;;;;;;;1.57;1.47;;;25.50;91.30;;;;;;5053523;28;20698;-66
2021/07/11 12:25:57;;;;;;;1.40;1.30;;;25.70;91.40;;;;;;5034943;28;20460;-67
2021/07/11 12:28:23;;;;;;;1.57;1.47;;;25.70;92.80;;;;;;5033358;28;20505;-68
2021/07/11 12:30:51;;;;;;;2.27;2.13;;;25.60;91.30;;;;;;5033510;28;20815;-68
2021/07/11 12:33:34;;;;;;;1.77;1.60;;;25.60;90.30;;;;;;5033725;28;20537;-65
2021/07/11 12:36:03;;;;;;;1.60;1.50;;;25.60;90.50;;;;;;5033358;28;20387;-65
2021/07/11 12:38:35;;;;;;;1.90;1.80;;;25.80;91.30;;;;;;5034499;28;20415;-65
2021/07/11 12:41:03;;;;;;;2.57;1.80;;;25.90;91.60;;;;;;5053585;28;20894;-66
2021/07/11 12:43:33;;;;;;;2.20;1.20;;;26.00;91.10;;;;;;5053257;28;20378;-66
2021/07/11 12:46:12;;;;;;;1.47;1.37;;;25.90;90.90;;;;;;5053393;28;20435;-66
2021/07/11 12:48:39;;;;;;;1.87;1.77;;;25.60;90.80;;;;;;5052682;28;20462;-66
2021/07/11 12:51:38;;;;;;;1.87;1.77;;;25.60;90.20;;;;;;5053223;28;20496;-66
2021/07/11 12:54:14;;;;;;;1.80;1.67;;;25.70;89.30;;;;;;5044136;28;20433;-66